Time;durP1;ratioP1;P1;durP2;ratioP2;P2;SDS_P1;SDS_P2;PMS_P1;PMS_P2;Temp;Humidity;BMP_temperature;BMP_pressure;BME280_temperature;BME280_humidity;BME280_pressure;Samples;Min_cycle;Max_cycle;Signal;HPM_P1;HPM_P2
2024/01/23 00:00:30;;;;;;;2.63;0.70;;;6.50;99.90;;;;;;4992573;28;20033;-72
2024/01/23 00:02:55;;;;;;;3.13;0.75;;;6.40;99.90;;;;;;4993059;28;20037;-73
2024/01/23 00:05:21;;;;;;;2.85;0.70;;;6.40;99.90;;;;;;4991543;28;20034;-72
2024/01/23 00:07:47;;;;;;;6.78;1.88;;;6.40;99.90;;;;;;5006986;28;20082;-72
2024/01/23 00:10:12;;;;;;;6.10;0.70;;;6.40;99.90;;;;;;4989354;28;20037;-72
2024/01/23 00:12:38;;;;;;;2.50;0.90;;;6.40;99.90;;;;;;4989568;28;20505;-73
2024/01/23 00:15:04;;;;;;;2.42;0.60;;;6.40;99.90;;;;;;4990730;28;20061;-72
2024/01/23 00:17:29;;;;;;;2.47;0.60;;;6.30;99.90;;;;;;4991156;28;20835;-72
2024/01/23 00:19:56;;;;;;;4.25;1.40;;;6.30;99.90;;;;;;4990655;28;20086;-72
2024/01/23 00:22:22;;;;;;;2.00;0.68;;;6.40;99.90;;;;;;4988428;28;20027;-72
2024/01/23 00:24:47;;;;;;;2.72;1.00;;;6.40;99.90;;;;;;4989160;28;20031;-73
2024/01/23 00:27:13;;;;;;;3.65;0.70;;;6.30;99.90;;;;;;4989195;28;20474;-73
2024/01/23 00:29:38;;;;;;;4.93;0.70;;;6.30;99.90;;;;;;4989369;28;20121;-72
2024/01/23 00:32:05;;;;;;;2.90;0.95;;;6.30;99.90;;;;;;4988112;28;20049;-72
2024/01/23 00:34:30;;;;;;;3.10;1.02;;;6.30;99.90;;;;;;4989546;28;20026;-73
2024/01/23 00:36:58;;;;;;;1.50;0.60;;;6.30;99.90;;;;;;4991306;28;20102;-73
2024/01/23 00:39:24;;;;;;;4.35;1.25;;;6.30;99.90;;;;;;4990053;28;20673;-72
2024/01/23 00:41:49;;;;;;;2.88;0.60;;;6.30;99.90;;;;;;4991258;28;20080;-72
2024/01/23 00:44:15;;;;;;;1.73;0.70;;;6.20;99.90;;;;;;4987926;28;20026;-72
2024/01/23 00:46:40;;;;;;;5.70;1.00;;;6.20;99.90;;;;;;4989682;28;20032;-72
2024/01/23 00:49:06;;;;;;;3.53;0.80;;;6.10;99.90;;;;;;4988942;28;20027;-72
2024/01/23 00:51:31;;;;;;;3.95;0.73;;;6.10;99.90;;;;;;4989635;28;20544;-72
2024/01/23 00:53:58;;;;;;;5.63;0.90;;;6.10;99.90;;;;;;4987321;28;20052;-72
2024/01/23 00:56:23;;;;;;;1.88;0.60;;;6.10;99.90;;;;;;4989302;28;20026;-73
2024/01/23 00:58:49;;;;;;;4.75;1.13;;;6.10;99.90;;;;;;4989793;28;20029;-72
2024/01/23 01:01:14;;;;;;;2.65;0.70;;;6.10;99.90;;;;;;4985211;28;20026;-72
2024/01/23 01:03:40;;;;;;;3.13;0.73;;;6.00;99.90;;;;;;4990525;28;20568;-72
2024/01/23 01:06:06;;;;;;;3.13;0.77;;;6.00;99.90;;;;;;4988096;28;20573;-72
2024/01/23 01:08:31;;;;;;;3.05;0.77;;;6.00;99.90;;;;;;4990372;28;20485;-72
2024/01/23 01:10:57;;;;;;;2.45;0.95;;;6.00;99.90;;;;;;4990884;28;20113;-72
2024/01/23 01:13:23;;;;;;;4.68;0.82;;;6.00;99.90;;;;;;4986479;28;20520;-71
2024/01/23 01:15:49;;;;;;;4.32;1.20;;;6.00;99.90;;;;;;4990802;28;20026;-72
2024/01/23 01:18:14;;;;;;;4.68;0.98;;;6.00;99.90;;;;;;4988960;28;20030;-72
2024/01/23 01:20:40;;;;;;;3.35;1.00;;;5.90;99.90;;;;;;4986107;28;20023;-72
2024/01/23 01:23:05;;;;;;;2.78;1.02;;;5.90;99.90;;;;;;4991274;28;20030;-73
2024/01/23 01:25:33;;;;;;;3.95;0.90;;;5.90;99.90;;;;;;4991139;28;20504;-72
2024/01/23 01:27:59;;;;;;;6.82;1.10;;;5.90;99.90;;;;;;4988799;28;20049;-72
2024/01/23 01:30:28;;;;;;;3.50;0.63;;;5.90;99.90;;;;;;4987134;28;20545;-72
2024/01/23 01:32:54;;;;;;;5.57;1.20;;;6.00;99.90;;;;;;4986733;28;20527;-71
2024/01/23 01:35:20;;;;;;;3.90;1.00;;;5.90;99.90;;;;;;4989520;28;20061;-72
2024/01/23 01:37:45;;;;;;;7.47;1.10;;;6.00;99.90;;;;;;4991959;28;20132;-72
2024/01/23 01:40:13;;;;;;;3.10;0.85;;;6.00;99.90;;;;;;4984901;28;20034;-72
2024/01/23 01:42:41;;;;;;;3.10;0.60;;;6.00;99.90;;;;;;4988524;28;20065;-72
2024/01/23 01:45:08;;;;;;;2.60;0.70;;;6.00;99.90;;;;;;4988694;28;20034;-72
2024/01/23 01:47:34;;;;;;;2.13;0.50;;;6.00;99.90;;;;;;4988666;28;20027;-72
2024/01/23 01:49:59;;;;;;;2.75;0.60;;;6.00;99.90;;;;;;4984301;28;20035;-74
2024/01/23 01:52:25;;;;;;;3.10;0.80;;;6.00;99.90;;;;;;4987877;28;20027;-73
2024/01/23 01:54:51;;;;;;;2.42;0.80;;;6.00;99.90;;;;;;4987974;28;20034;-73
2024/01/23 01:57:19;;;;;;;3.00;1.10;;;5.90;99.90;;;;;;4986971;28;20023;-73
2024/01/23 01:59:44;;;;;;;2.97;1.38;;;5.90;99.90;;;;;;4991117;28;20018;-72
2024/01/23 02:02:12;;;;;;;6.68;1.30;;;5.90;99.90;;;;;;4989143;28;20037;-73
2024/01/23 02:04:38;;;;;;;4.30;0.43;;;5.80;99.90;;;;;;4989718;28;20038;-73
2024/01/23 02:07:04;;;;;;;6.10;0.77;;;5.80;99.90;;;;;;4987578;28;20030;-72
2024/01/23 02:09:30;;;;;;;3.63;0.93;;;5.80;99.90;;;;;;4989660;28;20528;-73
2024/01/23 02:12:00;;;;;;;1.73;0.60;;;5.70;99.90;;;;;;4987804;28;20026;-73
2024/01/23 02:14:26;;;;;;;8.15;0.80;;;5.70;99.90;;;;;;4989820;28;20030;-72
2024/01/23 02:16:52;;;;;;;4.93;0.75;;;5.70;99.90;;;;;;4989482;28;20026;-73
2024/01/23 02:19:18;;;;;;;4.93;1.05;;;5.70;99.90;;;;;;4990553;28;20030;-73
2024/01/23 02:21:44;;;;;;;8.48;0.90;;;5.70;99.90;;;;;;4984795;28;20023;-73
2024/01/23 02:24:09;;;;;;;2.05;0.80;;;5.70;99.90;;;;;;4989724;28;20496;-73
2024/01/23 02:26:35;;;;;;;3.47;0.95;;;5.70;99.90;;;;;;4989253;28;20034;-72
2024/01/23 02:29:00;;;;;;;7.35;1.30;;;5.70;99.90;;;;;;4989395;28;20077;-72
2024/01/23 02:31:26;;;;;;;2.83;0.68;;;5.70;99.90;;;;;;4989192;28;20041;-72
2024/01/23 02:33:52;;;;;;;3.60;0.70;;;5.80;99.90;;;;;;4985637;28;20022;-72
2024/01/23 02:36:17;;;;;;;5.38;0.80;;;5.80;99.90;;;;;;4983359;28;20097;-72
2024/01/23 02:38:43;;;;;;;3.90;1.25;;;5.80;99.90;;;;;;4985409;28;20049;-71
2024/01/23 02:41:09;;;;;;;4.40;1.25;;;5.80;99.90;;;;;;4983287;28;20102;-72
2024/01/23 02:43:36;;;;;;;9.02;1.40;;;5.80;99.90;;;;;;4990447;28;20497;-72
2024/01/23 02:46:02;;;;;;;4.30;1.23;;;5.80;99.90;;;;;;4990060;28;20022;-72
2024/01/23 02:48:28;;;;;;;3.00;0.77;;;5.80;99.90;;;;;;4991822;28;20026;-72
2024/01/23 02:50:54;;;;;;;10.43;1.67;;;5.90;99.90;;;;;;4987161;28;20034;-72
2024/01/23 02:53:19;;;;;;;8.10;1.08;;;5.90;99.90;;;;;;4991100;28;20444;-72
2024/01/23 02:55:45;;;;;;;5.50;1.45;;;5.90;99.90;;;;;;4988447;28;20034;-72
2024/01/23 02:58:11;;;;;;;7.95;0.95;;;5.90;99.90;;;;;;4990117;28;20046;-72
2024/01/23 03:00:39;;;;;;;5.18;1.50;;;5.90;99.90;;;;;;4993410;28;20031;-72
2024/01/23 03:03:08;;;;;;;6.53;1.30;;;5.90;99.90;;;;;;4989750;28;20031;-71
2024/01/23 03:05:34;;;;;;;8.02;1.63;;;5.90;99.90;;;;;;4991249;28;20029;-72
2024/01/23 03:08:00;;;;;;;9.68;2.15;;;5.90;99.90;;;;;;4993315;28;20030;-72
2024/01/23 03:10:25;;;;;;;4.88;1.17;;;6.00;99.90;;;;;;4990515;28;20477;-72
2024/01/23 03:12:52;;;;;;;5.93;1.17;;;6.00;99.90;;;;;;4993003;28;20034;-72
2024/01/23 03:15:18;;;;;;;8.23;1.60;;;6.00;99.90;;;;;;4988885;28;20026;-72
2024/01/23 03:17:43;;;;;;;3.92;1.20;;;6.00;99.90;;;;;;4988420;28;20084;-72
2024/01/23 03:20:10;;;;;;;2.70;0.90;;;6.00;99.90;;;;;;4991763;28;20106;-72
2024/01/23 03:22:35;;;;;;;7.47;1.27;;;6.00;99.90;;;;;;4989458;28;20026;-72
2024/01/23 03:25:01;;;;;;;5.35;1.00;;;6.00;99.90;;;;;;4986718;28;20156;-72
2024/01/23 03:27:27;;;;;;;6.70;1.23;;;6.00;99.90;;;;;;4989739;28;20027;-72
2024/01/23 03:29:53;;;;;;;5.40;1.13;;;6.00;99.90;;;;;;4988166;28;20045;-72
2024/01/23 03:32:19;;;;;;;8.38;1.55;;;6.00;99.90;;;;;;4990095;28;20030;-72
2024/01/23 03:34:44;;;;;;;4.80;1.10;;;6.00;99.90;;;;;;4989716;28;20109;-72
2024/01/23 03:37:10;;;;;;;7.57;0.82;;;6.00;99.90;;;;;;4988021;28;20529;-72
2024/01/23 03:39:36;;;;;;;6.07;1.30;;;5.90;99.90;;;;;;4990393;28;20035;-72
2024/01/23 03:42:03;;;;;;;7.15;1.02;;;5.90;99.90;;;;;;4991768;28;20022;-72
2024/01/23 03:44:29;;;;;;;3.33;1.15;;;6.00;99.90;;;;;;4991241;28;20657;-72
2024/01/23 03:46:55;;;;;;;10.05;1.17;;;6.00;99.90;;;;;;4987190;28;20030;-72
2024/01/23 03:49:22;;;;;;;6.70;0.85;;;6.00;99.90;;;;;;4992611;28;20026;-72
2024/01/23 03:51:48;;;;;;;3.65;1.00;;;6.00;99.90;;;;;;4988606;28;20034;-72
2024/01/23 03:54:14;;;;;;;4.63;0.82;;;6.00;99.90;;;;;;4991459;28;20038;-72
2024/01/23 03:56:40;;;;;;;6.57;1.10;;;6.00;99.90;;;;;;4991773;28;20109;-72
2024/01/23 03:59:06;;;;;;;7.68;1.17;;;6.00;99.90;;;;;;4988210;28;20130;-72
2024/01/23 04:01:31;;;;;;;7.78;1.10;;;5.90;99.90;;;;;;4990404;28;20042;-72
2024/01/23 04:03:57;;;;;;;3.60;1.42;;;6.00;99.90;;;;;;4991047;28;20035;-72
2024/01/23 04:06:23;;;;;;;5.80;1.05;;;6.00;99.90;;;;;;4988318;28;20429;-72
2024/01/23 04:08:48;;;;;;;3.72;0.95;;;6.00;99.90;;;;;;4991254;28;20038;-72
2024/01/23 04:11:14;;;;;;;4.05;0.90;;;6.00;99.90;;;;;;4989631;28;20074;-72
2024/01/23 04:13:39;;;;;;;4.85;0.95;;;6.00;99.90;;;;;;4987247;28;20026;-72
2024/01/23 04:16:05;;;;;;;9.20;1.40;;;6.00;99.90;;;;;;4988390;28;20053;-72
2024/01/23 04:18:32;;;;;;;5.43;1.23;;;6.00;99.90;;;;;;4991317;28;20474;-72
2024/01/23 04:20:58;;;;;;;9.30;1.10;;;6.00;99.90;;;;;;4987823;28;20082;-72
2024/01/23 04:23:24;;;;;;;5.40;1.08;;;6.00;99.90;;;;;;4991307;28;20516;-72
2024/01/23 04:25:50;;;;;;;9.38;1.33;;;6.00;99.90;;;;;;4989143;28;20085;-72
2024/01/23 04:28:15;;;;;;;13.48;1.48;;;6.00;99.90;;;;;;4991595;28;20517;-72
2024/01/23 04:30:41;;;;;;;5.55;1.30;;;6.00;99.90;;;;;;4991838;28;20102;-73
2024/01/23 04:33:07;;;;;;;8.20;1.27;;;6.00;99.90;;;;;;4987357;28;20114;-72
2024/01/23 04:35:33;;;;;;;11.73;1.60;;;6.00;99.90;;;;;;4990562;28;20069;-73
2024/01/23 04:37:59;;;;;;;8.30;1.45;;;5.90;99.90;;;;;;4991773;28;20026;-72
2024/01/23 04:40:24;;;;;;;6.70;1.33;;;5.90;99.90;;;;;;4988842;28;20109;-72
2024/01/23 04:42:50;;;;;;;8.30;1.55;;;5.90;99.90;;;;;;4991298;28;20029;-72
2024/01/23 04:45:15;;;;;;;6.57;1.20;;;5.90;99.90;;;;;;4985224;28;20027;-72
2024/01/23 04:47:41;;;;;;;4.63;1.05;;;5.80;99.90;;;;;;5004181;28;20490;-72
2024/01/23 04:50:08;;;;;;;10.18;2.08;;;5.80;99.90;;;;;;4986723;28;20029;-72
2024/01/23 04:52:33;;;;;;;6.35;1.05;;;5.80;99.90;;;;;;4985569;28;20477;-73
2024/01/23 04:54:59;;;;;;;6.55;1.25;;;5.80;99.90;;;;;;4987156;28;20075;-73
2024/01/23 04:57:31;;;;;;;9.95;1.40;;;5.70;99.90;;;;;;4990326;28;20470;-72
2024/01/23 05:00:00;;;;;;;4.82;1.17;;;5.70;99.90;;;;;;4991141;28;20038;-73
2024/01/23 05:02:26;;;;;;;8.57;1.50;;;5.70;99.90;;;;;;4988893;28;20079;-72
2024/01/23 05:04:52;;;;;;;12.57;1.75;;;5.70;99.90;;;;;;4987220;28;20084;-72
2024/01/23 05:07:18;;;;;;;8.68;1.48;;;5.70;99.90;;;;;;4990261;28;20097;-72
2024/01/23 05:09:43;;;;;;;4.05;0.95;;;5.70;99.90;;;;;;4991363;28;20469;-71
2024/01/23 05:12:09;;;;;;;10.50;1.55;;;5.70;99.90;;;;;;4987643;28;20618;-72
2024/01/23 05:14:36;;;;;;;6.22;1.65;;;5.70;99.90;;;;;;4989597;28;20021;-72
2024/01/23 05:17:01;;;;;;;7.38;1.23;;;5.70;99.90;;;;;;4990865;28;20026;-72
2024/01/23 05:19:28;;;;;;;5.68;1.35;;;5.70;99.90;;;;;;4989790;28;20026;-72
2024/01/23 05:21:54;;;;;;;8.00;1.67;;;5.60;99.90;;;;;;4991439;28;20158;-72
2024/01/23 05:24:19;;;;;;;7.43;1.67;;;5.60;99.90;;;;;;4988542;28;20074;-72
2024/01/23 05:26:45;;;;;;;9.85;1.63;;;5.60;99.90;;;;;;4987983;28;20023;-73
2024/01/23 05:29:10;;;;;;;10.88;2.15;;;5.50;99.90;;;;;;4990066;28;20018;-73
2024/01/23 05:31:36;;;;;;;7.95;1.65;;;5.50;99.90;;;;;;4990939;28;20030;-72
2024/01/23 05:34:02;;;;;;;13.88;1.67;;;5.50;99.90;;;;;;4990088;28;20034;-73
2024/01/23 05:36:27;;;;;;;7.75;1.45;;;5.40;99.90;;;;;;4987808;28;20042;-73
2024/01/23 05:38:53;;;;;;;6.22;1.55;;;5.40;99.90;;;;;;4987990;28;20077;-72
2024/01/23 05:41:19;;;;;;;5.93;1.42;;;5.40;99.90;;;;;;4988791;28;20449;-72
2024/01/23 05:43:44;;;;;;;12.48;1.80;;;5.30;99.90;;;;;;4987442;28;20029;-73
2024/01/23 05:46:10;;;;;;;9.30;1.42;;;5.30;99.90;;;;;;4988845;28;20034;-73
2024/01/23 05:48:35;;;;;;;9.23;1.40;;;5.20;99.90;;;;;;4987812;28;20391;-72
2024/01/23 05:51:01;;;;;;;5.88;1.60;;;5.10;99.90;;;;;;4989375;28;20080;-73
2024/01/23 05:53:26;;;;;;;9.32;1.20;;;5.10;99.90;;;;;;4988691;28;20105;-73
2024/01/23 05:55:53;;;;;;;7.78;1.50;;;5.10;99.90;;;;;;4987159;28;20034;-73
2024/01/23 05:58:18;;;;;;;9.02;2.03;;;5.10;99.90;;;;;;4987918;28;20025;-73
2024/01/23 06:00:44;;;;;;;11.02;2.38;;;5.10;99.90;;;;;;4986744;28;20015;-67
2024/01/23 06:03:10;;;;;;;8.98;1.75;;;5.10;99.90;;;;;;4986331;28;20470;-67
2024/01/23 06:05:35;;;;;;;7.43;2.33;;;5.00;99.90;;;;;;4988763;28;20034;-67
2024/01/23 06:08:01;;;;;;;7.57;1.83;;;5.10;99.90;;;;;;4990915;28;20065;-67
2024/01/23 06:10:26;;;;;;;5.18;1.33;;;5.00;99.90;;;;;;4989833;28;20046;-67
2024/01/23 06:12:52;;;;;;;4.78;1.35;;;5.00;99.90;;;;;;4988269;28;20959;-67
2024/01/23 06:15:18;;;;;;;3.75;1.08;;;5.00;99.90;;;;;;4987126;28;20039;-67
2024/01/23 06:17:44;;;;;;;5.68;0.90;;;5.00;99.90;;;;;;4991558;28;20022;-67
2024/01/23 06:20:12;;;;;;;1.75;0.80;;;5.00;99.90;;;;;;4989755;28;20018;-66
2024/01/23 06:22:38;;;;;;;3.42;0.63;;;5.00;99.90;;;;;;4987040;28;20030;-72
2024/01/23 06:25:06;;;;;;;6.43;0.90;;;4.90;99.90;;;;;;4990947;28;20041;-74
2024/01/23 06:27:32;;;;;;;4.40;1.27;;;4.90;99.90;;;;;;4988570;28;20071;-73
2024/01/23 06:29:58;;;;;;;2.35;0.70;;;4.90;99.90;;;;;;4990423;28;20156;-74
2024/01/23 06:32:25;;;;;;;5.38;0.95;;;4.90;99.90;;;;;;4986466;28;20022;-74
2024/01/23 06:34:51;;;;;;;4.53;0.80;;;4.90;99.90;;;;;;4991694;28;20473;-74
2024/01/23 06:37:17;;;;;;;3.55;0.80;;;4.90;99.90;;;;;;4992002;28;20034;-74
2024/01/23 06:39:42;;;;;;;7.03;1.42;;;4.80;99.90;;;;;;4989553;28;20137;-74
2024/01/23 06:42:08;;;;;;;3.97;0.80;;;4.80;99.90;;;;;;4988718;28;20018;-74
2024/01/23 06:44:34;;;;;;;2.95;0.68;;;4.80;99.90;;;;;;4992196;28;20030;-74
2024/01/23 06:47:00;;;;;;;3.70;0.68;;;4.80;99.90;;;;;;4989475;28;20405;-74
2024/01/23 06:49:26;;;;;;;2.97;1.10;;;4.80;99.90;;;;;;4991180;28;20041;-72
2024/01/23 06:51:52;;;;;;;4.68;1.48;;;4.80;99.90;;;;;;4989709;28;20042;-73
2024/01/23 06:54:17;;;;;;;6.80;1.48;;;4.80;99.90;;;;;;4992437;28;20038;-73
2024/01/23 06:56:45;;;;;;;3.53;0.60;;;4.80;99.90;;;;;;4990185;28;20363;-73
2024/01/23 06:59:12;;;;;;;4.30;1.15;;;4.80;99.90;;;;;;4991475;28;20022;-73
2024/01/23 07:01:38;;;;;;;2.92;0.80;;;4.80;99.90;;;;;;4991244;28;20093;-73
2024/01/23 07:04:03;;;;;;;5.80;0.73;;;4.70;99.90;;;;;;4990727;28;20022;-74
2024/01/23 07:06:29;;;;;;;3.47;0.45;;;4.70;99.90;;;;;;4992103;28;20085;-73
2024/01/23 07:08:54;;;;;;;4.40;0.60;;;4.70;99.90;;;;;;4979500;28;20363;-74
2024/01/23 07:11:20;;;;;;;4.55;1.15;;;4.70;99.90;;;;;;4989837;28;20019;-73
2024/01/23 07:13:46;;;;;;;3.47;1.05;;;4.60;99.90;;;;;;4990220;28;20054;-74
2024/01/23 07:16:12;;;;;;;4.03;1.15;;;4.60;99.90;;;;;;4991249;28;20039;-73
2024/01/23 07:18:37;;;;;;;9.77;1.10;;;4.60;99.90;;;;;;4990380;28;20026;-73
2024/01/23 07:21:03;;;;;;;4.57;1.08;;;4.60;99.90;;;;;;4990350;28;20014;-73
2024/01/23 07:23:29;;;;;;;3.60;0.70;;;4.50;99.90;;;;;;4989291;28;20062;-73
2024/01/23 07:25:55;;;;;;;5.90;1.23;;;4.50;99.90;;;;;;4991570;28;20472;-74
2024/01/23 07:28:20;;;;;;;4.80;1.20;;;4.40;99.90;;;;;;4991290;28;20035;-74
2024/01/23 07:30:46;;;;;;;3.45;0.88;;;4.40;99.90;;;;;;4991536;28;20035;-73
2024/01/23 07:33:12;;;;;;;8.75;1.42;;;4.30;99.90;;;;;;4988502;28;20389;-72
2024/01/23 07:35:38;;;;;;;8.15;1.40;;;4.30;99.90;;;;;;4990441;28;20026;-73
2024/01/23 07:38:05;;;;;;;2.38;1.23;;;4.30;99.90;;;;;;4989257;28;20053;-71
2024/01/23 07:40:30;;;;;;;4.57;1.15;;;4.30;99.90;;;;;;4988693;28;20115;-72
2024/01/23 07:42:56;;;;;;;5.90;1.33;;;4.30;99.90;;;;;;4991448;28;20042;-72
2024/01/23 07:45:21;;;;;;;4.45;1.35;;;4.30;99.90;;;;;;4988887;28;20054;-72
2024/01/23 07:47:47;;;;;;;3.25;0.80;;;4.30;99.90;;;;;;4992332;28;20041;-73
2024/01/23 07:50:13;;;;;;;4.28;1.10;;;4.30;99.90;;;;;;4986706;28;20182;-72
2024/01/23 07:52:38;;;;;;;4.72;0.85;;;4.40;99.90;;;;;;4985210;28;20030;-72
2024/01/23 07:55:04;;;;;;;3.53;1.10;;;4.40;99.90;;;;;;4983757;28;20404;-72
2024/01/23 07:57:30;;;;;;;9.00;1.48;;;4.40;99.90;;;;;;4991382;28;20153;-72
2024/01/23 07:59:56;;;;;;;3.88;1.23;;;4.40;99.90;;;;;;4989141;28;20505;-72
2024/01/23 08:02:21;;;;;;;2.97;1.08;;;4.40;99.90;;;;;;4988627;28;20034;-72
2024/01/23 08:04:47;;;;;;;5.55;0.80;;;4.40;99.90;;;;;;4985392;28;20038;-71
2024/01/23 08:07:12;;;;;;;1.48;0.75;;;4.40;99.90;;;;;;4987788;28;20038;-72
2024/01/23 08:09:38;;;;;;;3.13;1.00;;;4.40;99.90;;;;;;4990105;28;20030;-71
2024/01/23 08:12:06;;;;;;;5.38;1.75;;;4.40;99.90;;;;;;4989101;28;20508;-72
2024/01/23 08:14:31;;;;;;;6.03;1.77;;;4.50;99.90;;;;;;4986464;28;20032;-72
2024/01/23 08:16:57;;;;;;;2.95;1.17;;;4.50;99.90;;;;;;4988888;28;20417;-72
2024/01/23 08:19:23;;;;;;;3.58;1.00;;;4.60;99.90;;;;;;4986605;28;20478;-72
2024/01/23 08:21:49;;;;;;;4.47;1.23;;;4.60;99.90;;;;;;4987515;28;20033;-71
2024/01/23 08:24:15;;;;;;;2.67;0.80;;;4.60;99.90;;;;;;4985887;28;20022;-73
2024/01/23 08:26:41;;;;;;;3.22;1.10;;;4.70;99.90;;;;;;4987404;28;20435;-72
2024/01/23 08:29:07;;;;;;;4.47;1.05;;;4.70;99.90;;;;;;4989192;28;20283;-72
2024/01/23 08:31:33;;;;;;;4.80;1.73;;;4.70;99.90;;;;;;4991732;28;20018;-73
2024/01/23 08:33:59;;;;;;;6.03;1.20;;;4.80;99.90;;;;;;4990931;28;20130;-72
2024/01/23 08:36:24;;;;;;;6.68;1.13;;;4.80;99.90;;;;;;4988175;28;20037;-72
2024/01/23 08:38:50;;;;;;;6.20;1.63;;;4.80;99.90;;;;;;4987413;28;20034;-72
2024/01/23 08:41:15;;;;;;;4.18;1.17;;;4.80;99.90;;;;;;4991017;28;20027;-72
2024/01/23 08:43:41;;;;;;;5.15;1.33;;;4.80;99.90;;;;;;4987812;28;20470;-72
2024/01/23 08:46:07;;;;;;;4.25;1.17;;;4.80;99.90;;;;;;4989273;28;20160;-72
2024/01/23 08:48:32;;;;;;;7.68;1.40;;;4.90;99.90;;;;;;4988914;28;20033;-71
2024/01/23 08:50:58;;;;;;;6.78;1.40;;;4.90;99.90;;;;;;4986987;28;20030;-71
2024/01/23 08:53:24;;;;;;;6.18;2.25;;;4.90;99.90;;;;;;4987126;28;20034;-71
2024/01/23 08:55:49;;;;;;;5.32;1.92;;;5.00;99.90;;;;;;4986761;28;20031;-72
2024/01/23 08:58:17;;;;;;;7.22;1.33;;;5.00;99.90;;;;;;4988286;28;20038;-72
2024/01/23 09:00:42;;;;;;;4.10;1.60;;;5.00;99.90;;;;;;4988687;28;20085;-72
2024/01/23 09:03:08;;;;;;;8.23;1.50;;;5.00;99.90;;;;;;4987138;28;20494;-72
2024/01/23 09:05:34;;;;;;;6.38;1.88;;;5.10;99.90;;;;;;4988650;28;20413;-72
2024/01/23 09:07:59;;;;;;;6.47;1.90;;;5.10;99.90;;;;;;4988728;28;20056;-72
2024/01/23 09:10:25;;;;;;;7.35;2.25;;;5.20;99.90;;;;;;4990231;28;20109;-72
2024/01/23 09:12:50;;;;;;;4.30;1.58;;;5.30;99.90;;;;;;4984652;28;20037;-72
2024/01/23 09:15:16;;;;;;;4.88;1.35;;;5.40;99.90;;;;;;4988301;28;20042;-72
2024/01/23 09:17:41;;;;;;;5.28;1.48;;;5.40;99.90;;;;;;4991206;28;20654;-72
2024/01/23 09:20:08;;;;;;;6.47;1.20;;;5.50;99.90;;;;;;4990750;28;20109;-71
2024/01/23 09:22:33;;;;;;;6.90;1.00;;;5.60;99.90;;;;;;4981782;28;20054;-71
2024/01/23 09:24:59;;;;;;;10.13;1.30;;;5.60;99.90;;;;;;4989776;28;20434;-72
2024/01/23 09:27:25;;;;;;;6.50;1.83;;;5.70;99.90;;;;;;4988627;28;20034;-71
2024/01/23 09:29:52;;;;;;;9.10;1.60;;;5.70;99.90;;;;;;4987977;28;20045;-72
2024/01/23 09:32:17;;;;;;;9.43;1.50;;;5.80;99.90;;;;;;4986359;28;20037;-72
2024/01/23 09:34:43;;;;;;;6.20;1.25;;;5.80;99.90;;;;;;4983725;28;20034;-72
2024/01/23 09:37:09;;;;;;;9.45;2.45;;;5.90;99.90;;;;;;4987760;28;20536;-73
2024/01/23 09:39:35;;;;;;;6.82;1.73;;;6.00;99.90;;;;;;4990147;28;20026;-73
2024/01/23 09:42:02;;;;;;;8.15;1.20;;;6.00;99.90;;;;;;4986888;28;20109;-72
2024/01/23 09:44:27;;;;;;;8.35;1.42;;;6.10;99.90;;;;;;4986422;28;20081;-72
2024/01/23 09:46:54;;;;;;;9.77;1.65;;;6.10;99.90;;;;;;4985569;28;20038;-72
2024/01/23 09:49:20;;;;;;;10.93;2.03;;;6.20;99.90;;;;;;4989194;28;20031;-72
2024/01/23 09:51:50;;;;;;;12.30;2.08;;;6.20;99.90;;;;;;4990090;28;20478;-72
2024/01/23 09:54:16;;;;;;;7.47;1.25;;;6.30;99.90;;;;;;4987357;28;20029;-73
2024/01/23 09:56:42;;;;;;;10.20;1.33;;;6.30;99.90;;;;;;4986254;28;20022;-72
2024/01/23 09:59:11;;;;;;;5.68;1.20;;;6.40;99.90;;;;;;4989583;28;20458;-73
2024/01/23 10:01:37;;;;;;;4.00;1.00;;;6.40;99.90;;;;;;4992174;28;20096;-71
2024/01/23 10:04:04;;;;;;;7.10;1.30;;;6.40;99.90;;;;;;4988917;28;20030;-72
2024/01/23 10:06:33;;;;;;;13.55;1.40;;;6.50;99.90;;;;;;4991123;28;20104;-73
2024/01/23 10:08:59;;;;;;;6.80;1.50;;;6.50;99.90;;;;;;4987104;28;20030;-72
2024/01/23 10:11:33;;;;;;;5.07;1.50;;;6.50;99.90;;;;;;4988912;28;20114;-72
2024/01/23 10:14:01;;;;;;;10.00;2.22;;;6.60;99.90;;;;;;4989649;28;20097;-72
2024/01/23 10:16:26;;;;;;;11.25;1.70;;;6.60;99.90;;;;;;4989938;28;20121;-72
2024/01/23 10:18:52;;;;;;;13.55;2.70;;;6.70;99.90;;;;;;4990298;28;20106;-72
2024/01/23 10:21:24;;;;;;;10.15;1.63;;;6.70;99.90;;;;;;4990651;28;20027;-72
2024/01/23 10:23:51;;;;;;;8.85;1.33;;;6.80;99.90;;;;;;4988596;28;20030;-72
2024/01/23 10:26:17;;;;;;;11.43;2.08;;;6.80;99.90;;;;;;4988845;28;20128;-72
2024/01/23 10:28:46;;;;;;;12.65;1.65;;;6.90;99.90;;;;;;4990066;28;20036;-73
2024/01/23 10:31:12;;;;;;;8.63;2.00;;;6.90;99.90;;;;;;4990590;28;20030;-72
2024/01/23 10:33:39;;;;;;;12.80;1.67;;;7.00;99.90;;;;;;4990950;28;20042;-71
2024/01/23 10:36:08;;;;;;;9.57;1.48;;;7.10;99.90;;;;;;4989561;28;20109;-72
2024/01/23 10:38:37;;;;;;;9.50;2.38;;;7.20;99.90;;;;;;4990193;28;20027;-74
2024/01/23 10:41:04;;;;;;;13.02;1.90;;;7.20;99.90;;;;;;4990393;28;20457;-73
2024/01/23 10:43:30;;;;;;;7.90;1.50;;;7.30;99.90;;;;;;4990342;28;20037;-73
2024/01/23 10:46:02;;;;;;;12.40;1.50;;;7.30;99.90;;;;;;4991059;28;20038;-72
2024/01/23 10:48:32;;;;;;;16.00;3.58;;;7.30;99.90;;;;;;4992786;28;20030;-72
2024/01/23 10:51:30;;;;;;;13.75;2.22;;;7.30;99.90;;;;;;4992142;28;20031;-72
2024/01/23 10:54:07;;;;;;;14.48;1.80;;;7.30;99.90;;;;;;4975493;28;20048;-72
2024/01/23 10:56:46;;;;;;;9.10;2.00;;;7.30;99.90;;;;;;4989821;28;20034;-73
2024/01/23 10:59:18;;;;;;;9.23;2.00;;;7.30;99.90;;;;;;4987689;28;20408;-71
2024/01/23 11:01:48;;;;;;;10.23;1.60;;;7.30;99.90;;;;;;4988624;28;20434;-72
2024/01/23 11:04:15;;;;;;;7.53;1.23;;;7.30;99.90;;;;;;4987770;28;20061;-72
2024/01/23 11:07:15;;;;;;;7.40;1.42;;;7.30;99.90;;;;;;4988026;28;20024;-71
2024/01/23 11:09:52;;;;;;;10.45;2.20;;;7.30;99.90;;;;;;4982590;28;20052;-71
2024/01/23 11:12:45;;;;;;;7.30;1.55;;;7.30;99.90;;;;;;4988900;28;20026;-73
2024/01/23 11:15:15;;;;;;;9.10;1.70;;;7.40;99.90;;;;;;4983422;28;20532;-73
2024/01/23 11:17:41;;;;;;;8.13;2.20;;;7.30;99.90;;;;;;4991321;28;20505;-73
2024/01/23 11:20:10;;;;;;;4.53;1.35;;;7.40;99.90;;;;;;4991783;28;20030;-73
2024/01/23 11:22:37;;;;;;;5.85;1.20;;;7.40;99.90;;;;;;4988988;28;20018;-71
2024/01/23 11:25:06;;;;;;;5.88;1.33;;;7.40;99.90;;;;;;4992114;28;20124;-73
2024/01/23 11:27:33;;;;;;;8.43;1.35;;;7.40;99.90;;;;;;4989800;28;20497;-72
2024/01/23 11:30:04;;;;;;;7.70;2.22;;;7.40;99.90;;;;;;4990738;28;20485;-73
2024/01/23 11:32:30;;;;;;;8.82;1.85;;;7.50;99.90;;;;;;4991028;28;20120;-73
2024/01/23 11:35:02;;;;;;;9.80;1.92;;;7.50;99.90;;;;;;4991831;28;20505;-71
2024/01/23 11:37:49;;;;;;;12.30;1.75;;;7.50;99.90;;;;;;4982541;28;20177;-71
2024/01/23 11:40:34;;;;;;;13.20;1.60;;;7.60;99.90;;;;;;4989340;28;20417;-71
2024/01/23 11:43:05;;;;;;;15.77;2.13;;;7.50;99.90;;;;;;4991035;28;20089;-70
2024/01/23 11:45:36;;;;;;;9.95;1.42;;;7.50;99.90;;;;;;4989748;28;20022;-70
2024/01/23 11:48:04;;;;;;;6.03;2.00;;;7.60;99.90;;;;;;4982650;28;20433;-71
2024/01/23 11:50:31;;;;;;;8.48;1.40;;;7.60;99.90;;;;;;4988680;28;20374;-70
2024/01/23 11:52:58;;;;;;;10.07;1.63;;;7.60;99.90;;;;;;4988403;28;20065;-70
2024/01/23 11:55:24;;;;;;;7.72;1.33;;;7.60;99.90;;;;;;4988039;28;20022;-71
2024/01/23 11:57:52;;;;;;;6.97;1.40;;;7.50;99.90;;;;;;4984282;28;20077;-71
2024/01/23 12:00:18;;;;;;;9.25;1.30;;;7.60;99.90;;;;;;4986336;28;20030;-72
2024/01/23 12:02:48;;;;;;;10.40;2.03;;;7.50;99.90;;;;;;4985215;28;20381;-73
2024/01/23 12:05:14;;;;;;;7.82;1.30;;;7.60;99.90;;;;;;5002094;28;20026;-72
2024/01/23 12:07:41;;;;;;;6.63;1.92;;;7.60;99.90;;;;;;4985769;28;20033;-71
2024/01/23 12:10:08;;;;;;;17.27;2.67;;;7.60;99.90;;;;;;4986328;28;20508;-72
2024/01/23 12:12:34;;;;;;;8.02;2.20;;;7.60;99.90;;;;;;4982866;28;20320;-73
2024/01/23 12:14:59;;;;;;;8.60;2.10;;;7.70;99.90;;;;;;4984199;28;20126;-74
2024/01/23 12:17:25;;;;;;;10.35;1.90;;;7.70;99.90;;;;;;4990428;28;20464;-72
2024/01/23 12:19:51;;;;;;;10.38;2.60;;;7.70;99.90;;;;;;4989487;28;20038;-72
2024/01/23 12:22:17;;;;;;;6.85;1.60;;;7.70;99.90;;;;;;4991224;28;20069;-72
2024/01/23 12:24:43;;;;;;;10.00;2.20;;;7.70;99.90;;;;;;4991294;28;20046;-72
2024/01/23 12:27:09;;;;;;;12.35;2.55;;;7.70;99.90;;;;;;4989103;28;20027;-72
2024/01/23 12:29:36;;;;;;;9.55;1.90;;;7.60;99.90;;;;;;4988207;28;20037;-72
2024/01/23 12:32:02;;;;;;;12.43;1.98;;;7.60;99.90;;;;;;4988116;28;20440;-71
2024/01/23 12:34:30;;;;;;;8.65;1.67;;;7.50;99.90;;;;;;4989178;28;20069;-73
2024/01/23 12:36:59;;;;;;;10.98;1.88;;;7.50;99.90;;;;;;4985880;28;20072;-71
2024/01/23 12:39:25;;;;;;;11.50;1.85;;;7.40;99.90;;;;;;4989702;28;20025;-72
2024/01/23 12:41:50;;;;;;;6.40;1.38;;;7.40;99.90;;;;;;4988467;28;20023;-71
2024/01/23 12:44:16;;;;;;;5.03;1.65;;;7.30;99.90;;;;;;4985575;28;20109;-71
2024/01/23 12:46:42;;;;;;;10.48;1.65;;;7.30;99.90;;;;;;4987005;28;20018;-71
2024/01/23 12:49:07;;;;;;;4.05;1.58;;;7.30;99.90;;;;;;4988238;28;20080;-74
2024/01/23 12:51:37;;;;;;;12.05;2.00;;;7.30;99.90;;;;;;4988091;28;20026;-73